Time;durP1;ratioP1;P1;durP2;ratioP2;P2;SDS_P1;SDS_P2;PMS_P1;PMS_P2;Temp;Humidity;BMP_temperature;BMP_pressure;BME280_temperature;BME280_humidity;BME280_pressure;Samples;Min_cycle;Max_cycle;Signal;HPM_P1;HPM_P2
2024/04/15 00:00:37;;;;;;;4.40;3.20;;;;;;;13.21;74.44;96558.12;108408;1274;22526;-74
2024/04/15 00:03:28;;;;;;;5.70;3.10;;;;;;;13.18;74.42;96554.60;108560;1275;22545;-75
2024/04/15 00:05:58;;;;;;;5.30;3.30;;;;;;;13.16;74.46;96556.04;108454;1275;22533;-74
2024/04/15 00:08:29;;;;;;;7.60;3.30;;;;;;;13.13;74.58;96554.23;108574;1275;25364;-74
2024/04/15 00:11:04;;;;;;;5.70;3.20;;;;;;;13.09;74.52;96551.48;108505;1275;22520;-74
2024/04/15 00:13:34;;;;;;;7.30;3.70;;;;;;;12.91;74.58;96546.69;108550;1275;25417;-74
2024/04/15 00:16:08;;;;;;;7.00;3.40;;;;;;;12.81;75.03;96543.79;108555;1269;22551;-73
2024/04/15 00:18:39;;;;;;;9.30;3.80;;;;;;;12.83;75.40;96538.80;108569;1275;22521;-74
2024/04/15 00:21:11;;;;;;;3.70;2.80;;;;;;;12.85;75.49;96540.58;108587;1275;25233;-74
2024/04/15 00:23:42;;;;;;;4.50;3.00;;;;;;;12.89;75.48;96531.04;108705;1268;22526;-74
2024/04/15 00:26:12;;;;;;;5.30;3.20;;;;;;;12.73;74.92;96524.09;108681;1254;22556;-74
2024/04/15 00:28:43;;;;;;;4.60;3.50;;;;;;;12.46;75.31;96519.02;108701;1272;25537;-74
2024/04/15 00:31:13;;;;;;;6.60;3.70;;;;;;;12.32;76.04;96510.70;108616;1275;22531;-74
2024/04/15 00:33:46;;;;;;;6.50;3.90;;;;;;;12.30;76.53;96506.05;108588;1269;22547;-75
2024/04/15 00:36:17;;;;;;;6.50;3.30;;;;;;;12.40;76.84;96503.71;108664;1269;22573;-75
2024/04/15 00:38:50;;;;;;;6.10;3.20;;;;;;;12.50;76.89;96506.77;108529;1275;23218;-74
2024/04/15 00:41:23;;;;;;;8.90;4.80;;;;;;;12.59;76.96;96504.40;108535;1272;25367;-76
2024/04/15 00:43:54;;;;;;;6.10;3.80;;;;;;;12.65;76.86;96502.52;108563;1275;22536;-74
2024/04/15 00:46:25;;;;;;;8.40;4.40;;;;;;;12.72;76.66;96501.23;108559;1276;22529;-75
2024/04/15 00:48:56;;;;;;;7.20;4.10;;;;;;;12.72;76.55;96497.07;108505;1275;22512;-74
2024/04/15 00:51:29;;;;;;;7.00;4.00;;;;;;;12.74;76.60;96499.75;108529;1275;22614;-74
2024/04/15 00:54:00;;;;;;;7.20;3.90;;;;;;;12.78;76.52;96492.71;108511;1275;22546;-74
2024/04/15 00:56:31;;;;;;;7.20;4.20;;;;;;;12.81;76.37;96486.96;108576;1275;25413;-74
2024/04/15 00:59:02;;;;;;;7.50;3.90;;;;;;;12.76;76.18;96487.79;108527;1275;25061;-75
2024/04/15 01:01:33;;;;;;;6.50;3.90;;;;;;;12.73;76.30;96479.77;108541;1275;22631;-74
2024/04/15 01:04:04;;;;;;;7.20;4.00;;;;;;;12.74;76.34;96476.88;108486;1275;22548;-74
2024/04/15 01:06:35;;;;;;;6.30;3.20;;;;;;;12.70;76.26;96474.56;108547;1275;25497;-74
2024/04/15 01:09:06;;;;;;;6.50;3.00;;;;;;;12.51;75.97;96468.58;108523;1275;24296;-75
2024/04/15 01:11:37;;;;;;;6.00;2.80;;;;;;;12.22;75.87;96462.59;108549;1275;24256;-75
2024/04/15 01:14:08;;;;;;;5.40;3.60;;;;;;;11.96;76.42;96457.81;108549;1275;22544;-74
2024/04/15 01:16:40;;;;;;;12.80;3.80;;;;;;;11.82;77.09;96454.79;108520;1269;22757;-74
2024/04/15 01:19:11;;;;;;;7.60;3.30;;;;;;;11.89;77.67;96451.98;108549;1272;22535;-74
2024/04/15 01:21:41;;;;;;;6.50;3.80;;;;;;;12.00;77.75;96447.50;108576;1275;22522;-74
2024/04/15 01:24:12;;;;;;;6.20;3.40;;;;;;;12.08;77.50;96441.67;108554;1275;22555;-74
2024/04/15 01:26:48;;;;;;;5.70;3.20;;;;;;;12.14;77.37;96438.39;108545;1266;22528;-75
2024/04/15 01:29:18;;;;;;;7.20;3.60;;;;;;;12.18;77.20;96433.52;108514;1275;22513;-74
2024/04/15 01:31:49;;;;;;;8.80;3.40;;;;;;;12.22;77.00;96429.00;108533;1275;22537;-74
2024/04/15 01:34:21;;;;;;;5.60;3.00;;;;;;;12.27;76.99;96420.95;108508;1268;22642;-74
2024/04/15 01:36:51;;;;;;;7.10;3.40;;;;;;;12.31;76.67;96411.67;108612;1275;22520;-74
2024/04/15 01:39:22;;;;;;;6.60;3.40;;;;;;;12.28;76.47;96406.09;108530;1275;22527;-74
2024/04/15 01:41:53;;;;;;;6.10;3.50;;;;;;;12.30;76.44;96397.55;108528;1275;22552;-74
2024/04/15 01:44:23;;;;;;;7.10;3.60;;;;;;;12.27;75.98;96392.29;108531;1274;22535;-74
2024/04/15 01:46:54;;;;;;;8.50;2.90;;;;;;;11.97;75.54;96388.98;108586;1275;25247;-74
2024/04/15 01:49:25;;;;;;;5.50;3.00;;;;;;;11.68;75.87;96385.13;108516;1276;25357;-74
2024/04/15 01:51:58;;;;;;;6.90;3.10;;;;;;;11.47;76.42;96379.56;108515;1269;22565;-74
2024/04/15 01:54:28;;;;;;;5.20;2.80;;;;;;;11.39;77.01;96375.39;108528;1275;22519;-75
2024/04/15 01:56:59;;;;;;;4.60;2.60;;;;;;;11.46;77.43;96368.92;108534;1275;22545;-74
2024/04/15 01:59:29;;;;;;;4.10;2.10;;;;;;;11.55;77.57;96364.16;108479;1275;25513;-74
2024/04/15 02:02:00;;;;;;;5.40;2.90;;;;;;;11.64;77.61;96361.13;108529;1275;22638;-74
2024/04/15 02:04:31;;;;;;;7.10;3.00;;;;;;;11.73;77.68;96352.23;108503;1275;22703;-74
2024/04/15 02:07:04;;;;;;;9.30;3.40;;;;;;;11.80;77.55;96338.84;108524;1275;22603;-74
2024/04/15 02:09:35;;;;;;;4.00;2.60;;;;;;;11.87;77.53;96337.31;108503;1271;22528;-74
2024/04/15 02:12:07;;;;;;;5.20;2.90;;;;;;;11.94;77.48;96337.56;108546;1275;22570;-74
2024/04/15 02:14:37;;;;;;;6.60;3.30;;;;;;;11.97;77.44;96333.41;108601;1275;22543;-74
2024/04/15 02:17:08;;;;;;;5.60;2.70;;;;;;;12.01;77.31;96323.58;108558;1269;22537;-74
2024/04/15 02:19:39;;;;;;;5.90;2.90;;;;;;;11.94;76.91;96320.92;108589;1271;22545;-74
2024/04/15 02:22:09;;;;;;;5.50;2.80;;;;;;;11.70;76.94;96318.34;108564;1272;22536;-72
2024/04/15 02:24:40;;;;;;;7.60;3.20;;;;;;;11.46;77.30;96318.89;108587;1272;22539;-74
2024/04/15 02:27:11;;;;;;;4.00;2.60;;;;;;;11.31;77.97;96310.71;108558;1275;22649;-74
2024/04/15 02:29:41;;;;;;;5.80;2.80;;;;;;;11.21;78.44;96301.66;108530;1269;22545;-74
2024/04/15 02:32:12;;;;;;;4.40;2.70;;;;;;;11.17;78.73;96293.77;108472;1272;22528;-74
2024/04/15 02:34:43;;;;;;;6.00;3.00;;;;;;;11.15;78.96;96289.73;108564;1275;22534;-74
2024/04/15 02:37:14;;;;;;;5.80;3.10;;;;;;;11.17;79.35;96285.45;108576;1275;23539;-74
2024/04/15 02:39:44;;;;;;;7.50;3.40;;;;;;;11.29;79.60;96286.27;108531;1272;22626;-74
2024/04/15 02:42:15;;;;;;;7.20;3.40;;;;;;;11.42;79.68;96281.64;108493;1275;23389;-74
2024/04/15 02:44:47;;;;;;;7.20;2.70;;;;;;;11.51;79.54;96273.31;108547;1272;22538;-74
2024/04/15 02:47:18;;;;;;;6.40;3.10;;;;;;;11.56;79.36;96265.29;108590;1275;22547;-74
2024/04/15 02:49:48;;;;;;;4.80;2.80;;;;;;;11.58;79.27;96255.52;108550;1272;22525;-74
2024/04/15 02:52:19;;;;;;;7.30;2.90;;;;;;;11.62;79.24;96250.98;108491;1275;22562;-74
2024/04/15 02:54:50;;;;;;;6.40;3.10;;;;;;;11.66;79.26;96245.51;108484;1275;22536;-74
2024/04/15 02:57:21;;;;;;;4.70;3.50;;;;;;;11.59;78.84;96243.29;108533;1275;22525;-74
2024/04/15 02:59:52;;;;;;;7.10;3.10;;;;;;;11.34;78.57;96242.56;108517;1275;25384;-74
2024/04/15 03:02:23;;;;;;;5.60;2.70;;;;;;;11.16;79.20;96239.79;108497;1275;22509;-74
2024/04/15 03:04:54;;;;;;;4.20;2.60;;;;;;;11.18;79.76;96233.86;108504;1268;24228;-74
2024/04/15 03:07:24;;;;;;;5.80;3.10;;;;;;;11.29;79.96;96225.98;108567;1275;22533;-74
2024/04/15 03:09:57;;;;;;;5.90;3.30;;;;;;;11.36;79.86;96211.52;108531;1275;22558;-73
2024/04/15 03:12:28;;;;;;;7.30;3.50;;;;;;;11.38;79.77;96212.33;108523;1275;22546;-74
2024/04/15 03:14:58;;;;;;;5.90;3.20;;;;;;;11.40;79.87;96209.17;108506;1269;22535;-74
2024/04/15 03:17:29;;;;;;;7.50;3.40;;;;;;;11.42;79.74;96211.44;108565;1275;23924;-74
2024/04/15 03:20:00;;;;;;;6.30;3.40;;;;;;;11.43;79.69;96204.73;108511;1275;22545;-73
2024/04/15 03:22:34;;;;;;;6.50;3.40;;;;;;;11.45;79.77;96200.06;108477;1275;191037;-74
2024/04/15 03:25:06;;;;;;;6.80;3.50;;;;;;;11.45;79.79;96196.44;108597;1267;22636;-74
2024/04/15 03:27:37;;;;;;;7.30;3.30;;;;;;;11.48;79.82;96190.51;108544;1275;22533;-74
2024/04/15 03:30:12;;;;;;;6.50;4.10;;;;;;;11.37;79.57;96186.68;108494;1271;22576;-74
2024/04/15 03:32:47;;;;;;;7.10;3.50;;;;;;;11.20;80.01;96178.95;108497;1275;22541;-74
2024/04/15 03:35:20;;;;;;;8.20;3.80;;;;;;;11.14;80.19;96172.44;108545;1272;24253;-74
2024/04/15 03:37:52;;;;;;;5.10;3.10;;;;;;;11.04;80.38;96163.16;108580;1271;22519;-74
2024/04/15 03:40:23;;;;;;;6.40;3.10;;;;;;;11.03;80.81;96157.23;108581;1272;22576;-74
2024/04/15 03:42:54;;;;;;;5.90;3.00;;;;;;;11.12;81.01;96153.62;108544;1275;22549;-74
2024/04/15 03:45:25;;;;;;;5.10;2.90;;;;;;;11.25;81.19;96151.64;108571;1275;22593;-74
2024/04/15 03:47:58;;;;;;;5.50;2.70;;;;;;;11.35;80.98;96148.81;108528;1275;22547;-74
2024/04/15 03:50:31;;;;;;;7.30;3.50;;;;;;;11.23;80.48;96141.44;108563;1274;22715;-74
2024/04/15 03:53:02;;;;;;;8.40;3.80;;;;;;;11.12;80.85;96131.45;108505;1265;23020;-75
2024/04/15 03:55:33;;;;;;;6.90;3.80;;;;;;;11.16;81.23;96115.82;108556;1275;22525;-74
2024/04/15 03:58:07;;;;;;;5.40;3.10;;;;;;;11.25;81.13;96110.40;108503;1272;25721;-74
2024/04/15 04:00:37;;;;;;;4.10;2.90;;;;;;;11.32;81.13;96115.98;108541;1275;29508;-74
2024/04/15 04:03:08;;;;;;;6.60;3.10;;;;;;;11.36;80.95;96112.70;108531;1272;22498;-74
2024/04/15 04:05:40;;;;;;;7.60;3.20;;;;;;;11.28;80.63;96107.16;108607;1275;24979;-74
2024/04/15 04:08:11;;;;;;;5.60;3.20;;;;;;;11.23;80.94;96101.99;108522;1272;22532;-74
2024/04/15 04:10:41;;;;;;;5.70;3.10;;;;;;;11.30;81.10;96101.94;108466;1272;22533;-74
2024/04/15 04:13:12;;;;;;;6.50;3.50;;;;;;;11.37;81.10;96097.70;108556;1275;22557;-74
2024/04/15 04:15:44;;;;;;;6.60;4.00;;;;;;;11.40;81.15;96092.55;108626;1275;22536;-74
2024/04/15 04:18:15;;;;;;;6.90;4.70;;;;;;;11.41;81.10;96086.02;108608;1275;22539;-74
2024/04/15 04:20:47;;;;;;;7.90;3.30;;;;;;;11.40;81.14;96084.07;108610;1274;22524;-74
2024/04/15 04:23:18;;;;;;;4.30;3.60;;;;;;;11.45;81.18;96075.59;108535;1272;22567;-73
2024/04/15 04:25:50;;;;;;;5.40;3.30;;;;;;;11.47;81.25;96070.87;108560;1269;25256;-73
2024/04/15 04:28:24;;;;;;;7.00;4.10;;;;;;;11.52;81.28;96065.55;108530;1275;22525;-74
2024/04/15 04:31:00;;;;;;;5.70;4.00;;;;;;;11.57;81.32;96058.55;108553;1270;22525;-73
2024/04/15 04:33:35;;;;;;;8.60;3.70;;;;;;;11.55;81.08;96051.27;108576;1275;24299;-73
2024/04/15 04:36:10;;;;;;;4.80;3.50;;;;;;;11.52;81.25;96044.64;108552;1275;24255;-73
2024/04/15 04:38:41;;;;;;;6.40;3.30;;;;;;;11.57;81.27;96045.70;108585;1275;22524;-74
2024/04/15 04:41:12;;;;;;;5.30;3.10;;;;;;;11.44;80.90;96053.66;108579;1275;32171;-74
2024/04/15 04:43:43;;;;;;;7.30;3.80;;;;;;;11.25;81.16;96052.70;108584;1270;22675;-74
2024/04/15 04:46:16;;;;;;;7.50;3.80;;;;;;;11.16;81.71;96049.36;108609;1275;25410;-74
2024/04/15 04:48:50;;;;;;;5.70;3.80;;;;;;;11.11;82.13;96048.74;108549;1275;26587;-74
2024/04/15 04:51:24;;;;;;;8.20;4.40;;;;;;;11.09;82.47;96050.31;108595;1275;22782;-74
2024/04/15 04:53:54;;;;;;;5.60;3.20;;;;;;;11.14;82.77;96050.98;108588;1275;25324;-74
2024/04/15 04:56:27;;;;;;;6.50;3.70;;;;;;;11.23;83.05;96041.13;108489;1272;22619;-74
2024/04/15 04:59:00;;;;;;;6.10;3.70;;;;;;;11.37;83.25;96037.56;108533;1269;22531;-73
2024/04/15 05:01:31;;;;;;;9.30;4.10;;;;;;;11.49;83.31;96032.76;108553;1273;24297;-74
2024/04/15 05:04:01;;;;;;;6.00;3.50;;;;;;;11.54;83.27;96030.63;108572;1275;22521;-74
2024/04/15 05:06:38;;;;;;;4.90;3.50;;;;;;;11.60;83.16;96042.61;108569;1275;22530;-74
2024/04/15 05:09:11;;;;;;;5.20;3.50;;;;;;;11.62;83.18;96026.85;108562;1273;24245;-74
2024/04/15 05:11:42;;;;;;;4.90;3.10;;;;;;;11.69;83.16;96024.48;108512;1275;22521;-74
2024/04/15 05:14:15;;;;;;;7.00;4.00;;;;;;;11.75;83.41;95999.70;108511;1270;23333;-74
2024/04/15 05:16:48;;;;;;;6.20;3.90;;;;;;;11.78;83.60;96021.30;108543;1270;22537;-73
2024/04/15 05:19:22;;;;;;;6.20;3.70;;;;;;;11.77;83.82;96014.41;108471;1271;22529;-73
2024/04/15 05:21:56;;;;;;;8.20;4.30;;;;;;;11.76;84.06;96025.70;108575;1270;22522;-73
2024/04/15 05:24:30;;;;;;;7.50;4.10;;;;;;;11.79;84.24;96038.86;108520;1271;22590;-74
2024/04/15 05:27:01;;;;;;;5.20;3.40;;;;;;;11.83;84.20;96041.35;108502;1272;22713;-74
2024/04/15 05:29:34;;;;;;;3.80;3.20;;;;;;;11.90;84.28;96052.71;108556;1272;23826;-74
2024/04/15 05:32:06;;;;;;;5.50;3.40;;;;;;;11.86;85.12;96049.98;108540;1271;24225;-73
2024/04/15 05:34:37;;;;;;;7.00;3.70;;;;;;;11.61;85.82;96041.58;108581;1275;22536;-74
2024/04/15 05:37:08;;;;;;;5.60;3.70;;;;;;;11.40;85.83;96058.52;108517;1269;22516;-73
2024/04/15 05:39:39;;;;;;;4.50;3.30;;;;;;;11.32;85.62;96089.90;108521;1275;22537;-73
2024/04/15 05:42:10;;;;;;;9.10;4.40;;;;;;;11.36;85.92;96139.49;108499;1274;22537;-73
2024/04/15 05:44:41;;;;;;;5.80;3.70;;;;;;;11.32;86.26;96214.14;108493;1271;22559;-73
2024/04/15 05:47:14;;;;;;;8.50;5.10;;;;;;;11.22;88.38;96178.02;108550;1268;22528;-74
2024/04/15 05:49:52;;;;;;;7.50;4.60;;;;;;;11.23;88.32;96200.12;108588;1275;22522;-74
2024/04/15 05:52:23;;;;;;;7.30;3.70;;;;;;;11.17;88.40;96190.63;108525;1275;23399;-74
2024/04/15 05:54:57;;;;;;;8.00;4.00;;;;;;;11.21;88.58;96153.83;108513;1275;22537;-74
2024/04/15 05:57:28;;;;;;;6.40;3.70;;;;;;;11.36;88.76;96155.55;108579;1275;22517;-74
2024/04/15 06:00:08;;;;;;;6.00;4.50;;;;;;;11.48;88.89;96145.54;108524;1275;24379;-74
2024/04/15 06:02:44;;;;;;;8.80;5.40;;;;;;;11.48;90.18;96133.86;108622;1275;24276;-74
2024/04/15 06:05:15;;;;;;;7.50;3.80;;;;;;;11.43;89.69;96123.35;108527;1270;22595;-74
2024/04/15 06:07:54;;;;;;;7.70;4.10;;;;;;;11.41;89.71;96111.72;108556;1275;22524;-74
2024/04/15 06:10:25;;;;;;;9.90;4.60;;;;;;;11.42;89.43;96109.25;108461;1274;24316;-74
2024/04/15 06:12:59;;;;;;;7.40;4.50;;;;;;;11.50;89.25;96097.34;108529;1270;28084;-74
2024/04/15 06:15:36;;;;;;;8.30;4.70;;;;;;;11.62;89.57;96084.73;108486;1270;25405;-73
2024/04/15 06:18:10;;;;;;;6.70;4.30;;;;;;;11.63;89.14;96066.59;108555;1270;24223;-73
2024/04/15 06:20:41;;;;;;;8.40;4.00;;;;;;;11.58;88.98;96045.00;108494;1275;22525;-74
2024/04/15 06:23:12;;;;;;;7.70;4.30;;;;;;;11.59;89.51;96006.09;108511;1275;22566;-74
2024/04/15 06:25:43;;;;;;;9.00;4.70;;;;;;;11.68;89.76;96029.13;108548;1270;23094;-75
2024/04/15 06:28:14;;;;;;;8.00;4.70;;;;;;;11.70;89.97;96150.10;108504;1271;22529;-73
2024/04/15 06:30:45;;;;;;;7.80;4.00;;;;;;;11.52;89.85;96139.77;108450;1270;22527;-75
2024/04/15 06:33:21;;;;;;;9.00;4.30;;;;;;;11.48;90.27;96156.38;108525;1275;22557;-75
2024/04/15 06:35:51;;;;;;;8.20;4.50;;;;;;;11.30;90.53;96142.80;108572;1270;24287;-73
2024/04/15 06:38:27;;;;;;;8.40;4.20;;;;;;;11.23;91.06;96137.50;108442;1270;25448;-75
2024/04/15 06:40:59;;;;;;;7.70;4.40;;;;;;;11.38;91.96;96110.86;108516;1270;22540;-75
2024/04/15 06:43:32;;;;;;;7.50;4.30;;;;;;;11.64;92.29;96095.30;108524;1275;22592;-75
2024/04/15 06:46:03;;;;;;;11.50;4.70;;;;;;;12.22;93.60;96082.16;108531;1275;22534;-74
2024/04/15 06:48:36;;;;;;;9.70;4.60;;;;;;;12.98;92.61;96083.94;108507;1269;22643;-74
2024/04/15 06:51:08;;;;;;;8.60;5.60;;;;;;;13.95;90.68;96074.05;108546;1269;22567;-74
2024/04/15 06:53:40;;;;;;;6.60;4.50;;;;;;;14.56;87.32;96067.98;108459;1270;22537;-75
2024/04/15 06:56:12;;;;;;;7.60;4.90;;;;;;;14.12;85.79;96050.20;108555;1273;22527;-74
2024/04/15 06:58:43;;;;;;;5.00;3.90;;;;;;;13.62;86.06;96043.02;108547;1273;22587;-74
2024/04/15 07:01:16;;;;;;;8.40;4.60;;;;;;;13.28;86.55;96043.27;108491;1269;22537;-74
2024/04/15 07:03:50;;;;;;;6.60;4.10;;;;;;;13.10;87.14;96037.54;108545;1273;25302;-74
2024/04/15 07:06:29;;;;;;;6.80;4.50;;;;;;;13.08;87.45;96040.48;108534;1270;23036;-74
2024/04/15 07:09:02;;;;;;;7.10;4.50;;;;;;;13.05;87.70;96049.74;108625;1269;22598;-74
2024/04/15 07:11:33;;;;;;;8.10;5.10;;;;;;;13.02;87.53;96051.95;108500;1271;23816;-74
2024/04/15 07:14:07;;;;;;;6.70;4.00;;;;;;;12.96;87.77;96048.44;108630;1272;22655;-74
2024/04/15 07:16:38;;;;;;;6.20;3.60;;;;;;;12.97;87.96;96050.06;108495;1272;22554;-74
2024/04/15 07:19:09;;;;;;;5.90;3.90;;;;;;;12.98;87.98;96062.00;108576;1269;25436;-74
2024/04/15 07:21:47;;;;;;;7.00;4.50;;;;;;;12.92;88.16;96053.10;108556;1270;22549;-74
2024/04/15 07:24:22;;;;;;;5.40;3.70;;;;;;;12.88;88.39;96057.38;108489;1268;25247;-75
2024/04/15 07:26:57;;;;;;;5.80;3.60;;;;;;;12.83;88.84;96054.29;108388;1269;22617;-74
2024/04/15 07:29:29;;;;;;;9.20;4.70;;;;;;;12.84;89.03;96060.89;108599;1269;22651;-74
2024/04/15 07:32:01;;;;;;;8.10;4.50;;;;;;;12.83;88.90;96062.37;108454;1270;22524;-74
2024/04/15 07:34:35;;;;;;;8.20;4.60;;;;;;;12.85;89.09;96064.50;108546;1268;22942;-75
2024/04/15 07:37:08;;;;;;;7.00;4.30;;;;;;;12.88;89.28;96059.88;108483;1266;22558;-74
2024/04/15 07:39:39;;;;;;;9.60;4.50;;;;;;;12.98;89.72;96045.46;108507;1268;23058;-74
2024/04/15 07:42:14;;;;;;;5.10;3.10;;;;;;;13.09;89.73;96038.40;108521;1275;25298;-74
2024/04/15 07:44:49;;;;;;;7.40;3.40;;;;;;;13.26;89.85;96036.26;108533;1268;22536;-74
2024/04/15 07:47:24;;;;;;;6.50;3.90;;;;;;;13.53;90.14;96028.15;108514;1267;26375;-73
2024/04/15 07:49:56;;;;;;;6.90;4.00;;;;;;;13.85;90.30;96018.25;108552;1275;23143;-73
2024/04/15 07:52:34;;;;;;;5.40;3.50;;;;;;;14.28;89.95;96008.70;108528;1275;25403;-74
2024/04/15 07:55:06;;;;;;;6.20;3.90;;;;;;;14.56;89.54;95999.02;108532;1275;26147;-74
2024/04/15 07:57:39;;;;;;;7.80;4.00;;;;;;;14.81;89.29;95997.55;108533;1269;22544;-74
2024/04/15 08:00:14;;;;;;;5.80;4.00;;;;;;;15.03;88.93;96003.73;108582;1275;25397;-74
2024/04/15 08:02:47;;;;;;;6.50;4.10;;;;;;;15.13;87.59;96007.20;108578;1269;22996;-74
2024/04/15 08:05:21;;;;;;;4.00;3.20;;;;;;;15.18;86.87;96011.04;108573;1272;24386;-73
2024/04/15 08:07:54;;;;;;;6.90;3.80;;;;;;;15.13;86.61;96014.42;108550;1269;26448;-74
2024/04/15 08:10:31;;;;;;;5.30;4.00;;;;;;;15.08;86.21;96006.00;108575;1269;22522;-74
2024/04/15 08:13:02;;;;;;;6.00;3.60;;;;;;;15.09;86.09;95999.85;108582;1275;22699;-74
2024/04/15 08:15:35;;;;;;;4.50;3.20;;;;;;;15.09;86.18;96007.96;108526;1275;22535;-74
2024/04/15 08:18:08;;;;;;;5.10;3.10;;;;;;;15.09;86.53;96012.30;108418;1273;25357;-73
2024/04/15 08:20:40;;;;;;;6.00;2.30;;;;;;;15.12;87.21;96001.51;108404;1274;22591;-74
2024/04/15 08:23:11;;;;;;;5.50;3.60;;;;;;;15.04;86.97;95990.79;108399;1273;22703;-73
2024/04/15 08:25:51;;;;;;;5.00;3.70;;;;;;;14.79;86.73;95984.87;108339;1269;22538;-73
2024/04/15 08:28:23;;;;;;;8.00;3.10;;;;;;;14.63;86.49;95974.21;108475;1269;22657;-73
2024/04/15 08:30:54;;;;;;;4.60;3.00;;;;;;;14.69;86.94;95978.28;108535;1271;22529;-73
2024/04/15 08:33:28;;;;;;;5.10;3.30;;;;;;;14.86;87.04;95981.45;108536;1270;24216;-73
2024/04/15 08:36:01;;;;;;;7.30;3.60;;;;;;;14.90;86.67;95982.99;108585;1273;22534;-74
2024/04/15 08:38:32;;;;;;;3.50;2.70;;;;;;;14.87;86.39;95984.17;108638;1265;22525;-73
2024/04/15 08:41:04;;;;;;;2.80;2.50;;;;;;;14.77;86.24;95990.05;108547;1268;22568;-73
2024/04/15 08:43:36;;;;;;;4.90;2.70;;;;;;;14.73;87.02;95995.81;108597;1268;22914;-73
2024/04/15 08:46:10;;;;;;;5.60;3.50;;;;;;;14.73;87.81;96004.98;108451;1268;22541;-73
2024/04/15 08:48:41;;;;;;;8.30;4.00;;;;;;;14.69;87.84;96010.36;108565;1274;22552;-73
2024/04/15 08:51:13;;;;;;;5.80;4.10;;;;;;;14.60;88.08;95995.73;108485;1275;24287;-74
2024/04/15 08:53:47;;;;;;;8.30;4.20;;;;;;;14.45;88.25;96002.40;108479;1275;22611;-73
2024/04/15 08:56:18;;;;;;;7.70;4.20;;;;;;;14.37;89.57;95994.38;108474;1268;22580;-74
2024/04/15 08:58:56;;;;;;;5.90;4.70;;;;;;;14.22;91.00;95995.12;108553;1275;22573;-73
2024/04/15 09:01:35;;;;;;;7.30;5.30;;;;;;;14.10;90.99;95989.51;108622;1271;22540;-73
2024/04/15 09:04:07;;;;;;;7.60;4.50;;;;;;;14.20;91.25;95990.02;108560;1275;24289;-73
2024/04/15 09:06:41;;;;;;;9.10;4.70;;;;;;;14.26;91.97;95976.02;108554;1271;22523;-73
2024/04/15 09:09:13;;;;;;;7.50;4.70;;;;;;;14.14;93.97;95966.38;108539;1275;23178;-73
2024/04/15 09:11:48;;;;;;;7.40;5.20;;;;;;;14.18;95.26;95974.83;108560;1275;22552;-73
2024/04/15 09:14:19;;;;;;;8.40;5.40;;;;;;;14.15;94.88;95968.70;108572;1269;22533;-73
2024/04/15 09:16:54;;;;;;;7.10;5.60;;;;;;;14.04;96.22;95973.16;108517;1269;22543;-73
2024/04/15 09:19:30;;;;;;;6.20;4.90;;;;;;;13.96;97.33;95968.29;108530;1268;22943;-73
2024/04/15 09:22:02;;;;;;;8.40;5.80;;;;;;;14.00;97.78;95966.46;108473;1269;22526;-74
2024/04/15 09:28:22;;;;;;;5.70;5.00;;;;;;;14.43;95.64;95950.89;108510;1273;22550;-73
2024/04/15 09:30:56;;;;;;;6.20;4.90;;;;;;;14.65;95.17;95947.55;108501;1270;22522;-74
2024/04/15 09:33:30;;;;;;;7.80;5.10;;;;;;;14.89;94.49;95953.91;108560;1272;25428;-73
2024/04/15 09:36:11;;;;;;;7.30;5.10;;;;;;;14.96;93.00;95958.86;108502;1268;22535;-74
2024/04/15 09:38:48;;;;;;;8.90;5.40;;;;;;;14.90;92.65;95966.23;108607;1269;22529;-74
2024/04/15 09:41:24;;;;;;;10.20;5.30;;;;;;;14.84;92.77;95978.23;108593;1269;22539;-74
2024/04/15 09:43:56;;;;;;;6.90;5.10;;;;;;;14.91;93.15;95996.79;108683;1270;22600;-75
2024/04/15 09:46:29;;;;;;;6.50;5.70;;;;;;;14.94;92.76;96002.88;108590;1275;25283;-74
2024/04/15 09:49:11;;;;;;;10.90;5.20;;;;;;;14.86;92.16;96009.45;108657;1269;22572;-73
2024/04/15 09:51:49;;;;;;;7.60;5.40;;;;;;;14.85;92.60;96004.48;108522;1275;23076;-73
2024/04/15 09:54:33;;;;;;;7.70;5.40;;;;;;;14.81;92.42;96015.16;108592;1271;22705;-74
2024/04/15 09:57:19;;;;;;;6.50;4.30;;;;;;;14.75;92.09;96033.58;108651;1271;22521;-73
2024/04/15 10:00:03;;;;;;;6.80;4.70;;;;;;;14.62;91.52;96040.73;109329;1268;22552;-73
2024/04/15 10:02:45;;;;;;;5.80;5.00;;;;;;;14.38;91.42;96044.17;108639;1275;22529;-74
2024/04/15 10:05:23;;;;;;;7.60;5.30;;;;;;;14.14;91.08;96042.45;108553;1275;22518;-74
2024/04/15 10:07:56;;;;;;;5.70;3.60;;;;;;;13.90;90.96;96054.88;108648;1268;22568;-74
2024/04/15 10:10:29;;;;;;;7.10;5.00;;;;;;;13.69;91.21;96047.02;108645;1275;22532;-74
2024/04/15 10:13:03;;;;;;;3.70;3.40;;;;;;;13.56;91.51;96036.52;108617;1269;22540;-74
2024/04/15 10:15:34;;;;;;;6.20;3.70;;;;;;;13.45;91.72;96027.60;108617;1271;25257;-74
2024/04/15 10:18:08;;;;;;;4.80;4.10;;;;;;;13.47;92.43;96018.30;108587;1275;22553;-74
2024/04/15 10:20:41;;;;;;;3.60;3.30;;;;;;;13.56;92.78;95993.52;108683;1268;22543;-74
2024/04/15 10:23:15;;;;;;;3.90;3.40;;;;;;;13.48;92.95;95986.55;108641;1268;22529;-74
2024/04/15 10:25:46;;;;;;;5.20;3.50;;;;;;;13.23;93.71;95974.33;108675;1275;23307;-74
2024/04/15 10:28:19;;;;;;;4.60;3.40;;;;;;;12.95;95.07;95956.15;108609;1269;24471;-74
2024/04/15 10:30:50;;;;;;;4.10;3.70;;;;;;;12.63;95.85;95949.00;108563;1268;22532;-74
2024/04/15 10:33:21;;;;;;;3.60;3.30;;;;;;;12.50;94.93;95956.56;108599;1271;23337;-74
2024/04/15 10:35:54;;;;;;;4.10;3.70;;;;;;;12.57;95.35;95969.96;108632;1268;22703;-74
2024/04/15 10:38:33;;;;;;;4.10;3.50;;;;;;;12.68;95.32;95972.58;108630;1275;25098;-74
2024/04/15 10:41:09;;;;;;;5.00;4.20;;;;;;;12.79;95.19;95966.48;108616;1268;22521;-73
2024/04/15 10:43:40;;;;;;;4.90;4.40;;;;;;;12.91;95.12;95965.36;108655;1268;22577;-73
2024/04/15 10:46:14;;;;;;;4.80;4.40;;;;;;;12.99;95.17;95963.86;108578;1275;22534;-74
2024/04/15 10:48:45;;;;;;;5.60;4.00;;;;;;;13.05;94.86;95968.16;108625;1275;22562;-74
2024/04/15 10:51:16;;;;;;;4.20;3.80;;;;;;;13.09;94.67;95963.85;108649;1273;22533;-74
2024/04/15 10:53:47;;;;;;;5.40;3.40;;;;;;;13.13;94.75;95961.34;108609;1275;22562;-74
2024/04/15 10:56:18;;;;;;;4.30;3.40;;;;;;;13.18;94.49;95969.62;108594;1272;22661;-74
2024/04/15 10:58:49;;;;;;;4.60;3.50;;;;;;;13.23;94.57;95954.89;108632;1275;22530;-74
2024/04/15 11:01:20;;;;;;;3.80;3.30;;;;;;;13.33;94.86;95954.28;108647;1275;22532;-74
2024/04/15 11:03:51;;;;;;;3.90;3.10;;;;;;;13.43;94.45;95958.06;108611;1275;22536;-74
2024/04/15 11:06:22;;;;;;;2.60;2.40;;;;;;;13.44;93.98;95972.66;108574;1268;22547;-73
2024/04/15 11:08:53;;;;;;;2.80;2.40;;;;;;;13.48;94.08;95984.38;108622;1269;22539;-74
2024/04/15 11:11:24;;;;;;;3.10;2.70;;;;;;;13.44;93.26;95988.00;108480;1271;22613;-74
2024/04/15 11:13:55;;;;;;;3.60;3.00;;;;;;;13.39;93.09;95994.02;108490;1268;22535;-74
2024/04/15 11:16:26;;;;;;;5.20;2.90;;;;;;;13.32;92.99;95997.91;108551;1275;22913;-73
2024/04/15 11:19:07;;;;;;;2.80;2.60;;;;;;;13.16;93.97;95996.77;108533;1275;22558;-73
2024/04/15 11:21:38;;;;;;;3.00;2.40;;;;;;;12.86;94.33;95999.71;108441;1268;22542;-73
2024/04/15 11:24:10;;;;;;;2.50;2.30;;;;;;;12.61;94.66;95985.58;108473;1275;22609;-74
2024/04/15 11:26:42;;;;;;;2.80;2.50;;;;;;;12.34;95.44;95980.05;108431;1275;22543;-73
2024/04/15 11:29:16;;;;;;;3.70;2.80;;;;;;;12.10;97.04;95981.17;108539;1275;24233;-73
2024/04/15 11:31:47;;;;;;;3.00;2.70;;;;;;;11.85;98.19;95979.27;108509;1269;22536;-74
2024/04/15 11:34:18;;;;;;;2.80;2.50;;;;;;;11.74;97.49;95977.33;108144;1271;22539;-73
2024/04/15 11:36:49;;;;;;;3.90;2.30;;;;;;;11.70;97.51;95974.02;108470;1268;22557;-74
2024/04/15 11:39:20;;;;;;;3.50;2.70;;;;;;;11.75;97.19;95984.61;108479;1269;22536;-73
2024/04/15 11:41:51;;;;;;;2.60;2.40;;;;;;;11.83;97.18;95982.88;108474;1275;23734;-73
2024/04/15 11:44:22;;;;;;;3.30;3.00;;;;;;;11.74;97.68;95966.27;108499;1269;22674;-73
2024/04/15 11:46:56;;;;;;;3.80;2.90;;;;;;;11.61;98.11;95958.80;108490;1275;23127;-73
2024/04/15 11:49:33;;;;;;;3.90;2.20;;;;;;;11.55;97.43;95950.40;108504;1267;24608;-73
2024/04/15 11:52:05;;;;;;;3.00;2.50;;;;;;;11.62;97.57;95937.65;108442;1275;22939;-73